Time;durP1;ratioP1;P1;durP2;ratioP2;P2;SDS_P1;SDS_P2;PMS_P1;PMS_P2;Temp;Humidity;BMP_temperature;BMP_pressure;BME280_temperature;BME280_humidity;BME280_pressure;Samples;Min_cycle;Max_cycle;Signal;HPM_P1;HPM_P2
2022/12/28 00:01:19;;;;;;;9.80;3.63;;;7.00;99.90;;;;;;4972341;28;20027;-85
2022/12/28 00:03:45;;;;;;;17.33;3.33;;;7.10;99.90;;;;;;4956485;29;20034;-84
2022/12/28 00:06:14;;;;;;;13.80;3.25;;;7.00;99.90;;;;;;4956543;29;20477;-85
2022/12/28 00:08:40;;;;;;;9.75;3.20;;;7.00;99.90;;;;;;4956179;29;20032;-85
2022/12/28 00:11:09;;;;;;;8.30;2.95;;;7.00;99.90;;;;;;4956066;29;20027;-84
2022/12/28 00:13:36;;;;;;;7.05;3.50;;;7.00;99.90;;;;;;4955996;28;20027;-85
2022/12/28 00:16:26;;;;;;;6.32;2.50;;;7.00;99.90;;;;;;4956089;29;20046;-85
2022/12/28 00:18:56;;;;;;;8.50;3.38;;;7.00;99.90;;;;;;4956117;29;20544;-85
2022/12/28 00:21:22;;;;;;;7.72;3.30;;;7.00;99.90;;;;;;4955983;29;20623;-86
2022/12/28 00:23:52;;;;;;;9.02;3.13;;;7.00;99.90;;;;;;4957483;28;20413;-88
2022/12/28 00:26:19;;;;;;;7.13;3.20;;;7.00;99.90;;;;;;4972102;28;20071;-84
2022/12/28 00:28:45;;;;;;;10.70;3.20;;;7.00;99.90;;;;;;4957164;28;20146;-85
2022/12/28 00:31:11;;;;;;;7.90;3.17;;;6.90;99.90;;;;;;4956158;29;20022;-86
2022/12/28 00:33:37;;;;;;;8.68;2.95;;;7.00;99.90;;;;;;4955900;29;20031;-86
2022/12/28 00:36:05;;;;;;;8.27;3.03;;;7.00;99.90;;;;;;4957077;28;20388;-85
2022/12/28 00:38:31;;;;;;;10.30;3.55;;;6.90;99.90;;;;;;4973660;28;20027;-87
2022/12/28 00:41:00;;;;;;;7.35;2.78;;;6.90;99.90;;;;;;4959418;28;20038;-87
2022/12/28 00:43:26;;;;;;;14.30;3.20;;;6.90;99.90;;;;;;4959002;28;20031;-85
2022/12/28 00:45:52;;;;;;;9.27;3.55;;;7.00;99.90;;;;;;4959807;28;20027;-84
2022/12/28 00:48:18;;;;;;;10.20;3.00;;;7.00;99.90;;;;;;4974387;28;20100;-84
2022/12/28 00:50:44;;;;;;;10.60;3.03;;;7.00;99.90;;;;;;4971348;28;20429;-84
2022/12/28 00:53:10;;;;;;;7.93;2.65;;;7.00;99.90;;;;;;4971763;28;20034;-85
2022/12/28 00:55:36;;;;;;;8.52;2.60;;;7.10;99.90;;;;;;4971187;28;20083;-85
2022/12/28 00:58:04;;;;;;;6.78;2.97;;;7.00;99.90;;;;;;4971332;28;20050;-85
2022/12/28 01:00:30;;;;;;;8.73;2.97;;;7.10;99.90;;;;;;4970903;28;20046;-84
2022/12/28 01:02:56;;;;;;;7.70;2.50;;;7.10;99.90;;;;;;4971051;28;20027;-84
2022/12/28 01:05:22;;;;;;;10.65;3.35;;;7.10;99.90;;;;;;4956948;29;20020;-87
2022/12/28 01:07:48;;;;;;;11.93;3.38;;;7.10;99.90;;;;;;4971887;28;20035;-87
2022/12/28 01:10:17;;;;;;;8.35;3.00;;;7.10;99.90;;;;;;4972338;28;20032;-87
2022/12/28 01:12:43;;;;;;;7.57;3.03;;;7.10;99.90;;;;;;4957278;28;20491;-88
2022/12/28 01:15:10;;;;;;;7.80;2.90;;;7.10;99.90;;;;;;4971715;28;20043;-87
2022/12/28 01:17:37;;;;;;;5.97;2.80;;;7.20;99.90;;;;;;4971698;28;20491;-87
2022/12/28 01:20:04;;;;;;;6.65;3.10;;;7.20;99.90;;;;;;4971825;28;20031;-87
2022/12/28 01:22:30;;;;;;;6.57;2.88;;;7.20;99.90;;;;;;4971460;28;20035;-88
2022/12/28 01:24:55;;;;;;;7.85;2.95;;;7.20;99.90;;;;;;4971134;28;20082;-88
2022/12/28 01:27:21;;;;;;;10.90;3.55;;;7.20;99.90;;;;;;4971665;28;20090;-87
2022/12/28 01:29:47;;;;;;;8.10;3.25;;;7.20;99.90;;;;;;4971991;28;20528;-88
2022/12/28 01:32:13;;;;;;;8.15;3.03;;;7.20;99.90;;;;;;4971683;28;20077;-87
2022/12/28 01:34:38;;;;;;;7.28;3.10;;;7.30;99.90;;;;;;4971484;28;20090;-88
2022/12/28 01:37:04;;;;;;;6.72;3.28;;;7.30;99.90;;;;;;4971532;28;20031;-86
2022/12/28 01:39:30;;;;;;;10.60;3.58;;;7.30;99.90;;;;;;4971459;28;20034;-86
2022/12/28 01:41:56;;;;;;;7.13;3.08;;;7.40;99.90;;;;;;4970959;28;20035;-86
2022/12/28 01:44:25;;;;;;;8.25;3.55;;;7.40;99.90;;;;;;4970806;28;20031;-86
2022/12/28 01:47:07;;;;;;;10.93;4.47;;;7.40;99.90;;;;;;4971349;28;20027;-87
2022/12/28 01:49:39;;;;;;;6.07;2.90;;;7.50;99.90;;;;;;4970979;28;20560;-87
2022/12/28 01:52:18;;;;;;;8.38;3.40;;;7.50;99.90;;;;;;4956211;29;20031;-87
2022/12/28 01:55:15;;;;;;;7.80;3.20;;;7.50;99.90;;;;;;4955862;28;20374;-88
2022/12/28 01:57:55;;;;;;;7.72;3.10;;;7.50;99.90;;;;;;4962850;28;20105;-87
2022/12/28 02:00:21;;;;;;;9.13;3.45;;;7.60;99.90;;;;;;4970662;28;20020;-86
2022/12/28 02:02:57;;;;;;;7.75;3.63;;;7.60;99.90;;;;;;4970542;28;20034;-86
2022/12/28 02:05:28;;;;;;;9.65;3.47;;;7.60;99.90;;;;;;4955846;28;20031;-86
2022/12/28 02:08:06;;;;;;;8.38;3.15;;;7.60;99.90;;;;;;4956575;28;20023;-87
2022/12/28 02:10:34;;;;;;;6.57;3.22;;;7.70;99.90;;;;;;4970970;28;20357;-85
2022/12/28 02:13:01;;;;;;;9.80;3.50;;;7.70;99.90;;;;;;4969990;28;20059;-85
2022/12/28 02:15:27;;;;;;;6.45;3.00;;;7.70;99.90;;;;;;4970198;28;20027;-85
2022/12/28 02:17:54;;;;;;;9.40;2.90;;;7.70;99.90;;;;;;4970135;28;20039;-85
2022/12/28 02:20:20;;;;;;;8.38;3.65;;;7.70;99.90;;;;;;4970136;28;20114;-85
2022/12/28 02:22:54;;;;;;;7.40;3.55;;;7.70;99.90;;;;;;4970740;28;20179;-83
2022/12/28 02:25:23;;;;;;;10.02;3.30;;;7.70;99.90;;;;;;4970140;28;20023;-85
2022/12/28 02:28:23;;;;;;;8.23;2.83;;;7.80;99.90;;;;;;4970631;28;20020;-86
2022/12/28 02:31:01;;;;;;;8.40;3.30;;;7.80;99.90;;;;;;4970415;28;20023;-86
2022/12/28 02:33:37;;;;;;;7.72;3.20;;;7.80;99.90;;;;;;4970286;28;20519;-86
2022/12/28 02:36:12;;;;;;;8.88;3.00;;;7.80;99.90;;;;;;4970544;28;20031;-85
2022/12/28 02:38:41;;;;;;;8.15;3.17;;;7.80;99.90;;;;;;4959629;28;20054;-88
2022/12/28 02:41:12;;;;;;;5.82;3.17;;;7.80;99.90;;;;;;4974007;28;20122;-87
2022/12/28 02:43:38;;;;;;;;;;;7.90;99.90;;;;;;4974699;28;20119;-85
2022/12/28 02:50:04;;;;;;;8.73;2.90;;;7.90;99.90;;;;;;4959298;29;20543;-85
2022/12/28 02:52:14;;;;;;;10.85;3.50;;;7.80;99.90;;;;;;4958879;28;20075;-86
2022/12/28 02:58:12;;;;;;;6.57;3.55;;;7.90;99.90;;;;;;4959259;29;20045;-85
2022/12/28 03:01:10;;;;;;;12.45;3.80;;;7.80;99.90;;;;;;4965249;28;20070;-87
2022/12/28 03:03:59;;;;;;;12.50;4.10;;;7.80;99.90;;;;;;4959250;28;20039;-87
2022/12/28 03:09:49;;;;;;;7.57;3.83;;;7.80;99.90;;;;;;4958631;29;20030;-84
2022/12/28 03:12:20;;;;;;;8.98;3.95;;;7.80;99.90;;;;;;4973543;28;20031;-84
2022/12/28 03:14:52;;;;;;;10.30;3.65;;;7.80;99.90;;;;;;4973606;28;20503;-85
2022/12/28 03:31:22;;;;;;;9.18;4.85;;;7.80;99.90;;;;;;4959194;29;20125;-87
2022/12/28 03:33:50;;;;;;;8.05;4.40;;;7.80;99.90;;;;;;4973791;28;20050;-88
2022/12/28 03:36:27;;;;;;;8.30;4.43;;;7.80;99.90;;;;;;4973431;28;20115;-88
2022/12/28 03:39:15;;;;;;;11.00;4.88;;;7.80;99.90;;;;;;4973829;28;20090;-88
2022/12/28 03:41:46;;;;;;;9.40;4.95;;;7.80;99.90;;;;;;4973278;28;20473;-87
2022/12/28 03:44:33;;;;;;;12.52;5.45;;;7.80;99.90;;;;;;4973509;28;20461;-88
2022/12/28 03:47:06;;;;;;;9.68;5.20;;;7.80;99.90;;;;;;4972777;28;20092;-87
2022/12/28 03:49:32;;;;;;;7.68;4.45;;;7.80;99.90;;;;;;4972943;28;20028;-84
2022/12/28 03:52:00;;;;;;;10.45;5.07;;;7.80;99.90;;;;;;4973096;28;20023;-87
2022/12/28 03:54:26;;;;;;;7.18;4.72;;;7.80;99.90;;;;;;4973412;28;20042;-88
2022/12/28 03:56:52;;;;;;;9.25;4.70;;;7.90;99.90;;;;;;4973919;28;20035;-87
2022/12/28 03:59:18;;;;;;;8.07;4.80;;;7.90;99.90;;;;;;4973064;28;20385;-88
2022/12/28 04:01:44;;;;;;;9.40;5.07;;;7.90;99.90;;;;;;4972950;28;20027;-89
2022/12/28 04:04:10;;;;;;;10.23;5.45;;;7.90;99.90;;;;;;4972991;28;20488;-89
2022/12/28 04:06:36;;;;;;;8.15;4.88;;;7.90;99.90;;;;;;4973166;28;20018;-86
2022/12/28 04:09:03;;;;;;;8.55;4.43;;;8.00;99.90;;;;;;4972612;28;20389;-86
2022/12/28 04:11:29;;;;;;;13.32;5.82;;;8.00;99.90;;;;;;4972514;28;20020;-86
2022/12/28 04:13:55;;;;;;;7.82;4.70;;;8.00;99.90;;;;;;4972879;28;20110;-87
2022/12/28 04:16:20;;;;;;;10.13;5.07;;;8.00;99.90;;;;;;4957789;29;20026;-86
2022/12/28 04:18:46;;;;;;;8.65;4.95;;;8.00;99.90;;;;;;4957648;28;20110;-86
2022/12/28 04:21:13;;;;;;;8.95;4.85;;;8.10;99.90;;;;;;4972392;28;20386;-86
2022/12/28 04:23:39;;;;;;;10.10;5.13;;;8.00;99.90;;;;;;4972033;28;20023;-86
2022/12/28 04:26:08;;;;;;;8.50;5.15;;;8.10;99.90;;;;;;4972394;28;20384;-87
2022/12/28 04:28:34;;;;;;;9.85;4.90;;;8.10;99.90;;;;;;4972207;28;20473;-87
2022/12/28 04:31:01;;;;;;;8.70;4.97;;;8.10;99.90;;;;;;4957854;28;20027;-86
2022/12/28 04:33:27;;;;;;;9.40;5.50;;;8.20;99.90;;;;;;4972295;28;20027;-86
2022/12/28 04:36:02;;;;;;;8.45;5.50;;;8.20;99.90;;;;;;4972128;28;20028;-87
2022/12/28 04:38:27;;;;;;;7.78;5.10;;;8.20;99.90;;;;;;4972329;28;20031;-86
2022/12/28 04:40:53;;;;;;;11.60;5.25;;;8.20;99.90;;;;;;4972138;28;20070;-88
2022/12/28 04:43:22;;;;;;;9.98;5.43;;;8.20;99.90;;;;;;4972246;28;20045;-88
2022/12/28 04:45:58;;;;;;;9.68;5.70;;;8.20;99.90;;;;;;4972482;28;20388;-88
2022/12/28 04:48:25;;;;;;;10.93;6.00;;;8.30;99.90;;;;;;4972010;28;20035;-86
2022/12/28 04:50:52;;;;;;;8.30;5.20;;;8.20;99.90;;;;;;4971509;28;20083;-86
2022/12/28 04:53:18;;;;;;;10.43;5.28;;;8.30;99.90;;;;;;4971796;28;20039;-87
2022/12/28 04:55:44;;;;;;;10.43;5.55;;;8.30;99.90;;;;;;4956614;29;20405;-86
2022/12/28 04:58:10;;;;;;;9.85;5.78;;;8.30;99.90;;;;;;4971344;28;20027;-86
2022/12/28 05:00:35;;;;;;;14.88;6.45;;;8.30;99.90;;;;;;4956039;28;20038;-86
2022/12/28 05:03:01;;;;;;;11.35;5.45;;;8.40;99.90;;;;;;4971401;28;20031;-86
2022/12/28 05:05:28;;;;;;;15.57;6.85;;;8.30;99.90;;;;;;4971590;28;20035;-87
2022/12/28 05:07:54;;;;;;;11.70;5.97;;;8.40;99.90;;;;;;4971351;28;20038;-87
2022/12/28 05:10:20;;;;;;;11.10;5.40;;;8.40;99.90;;;;;;4971346;28;20032;-87
2022/12/28 05:12:46;;;;;;;11.38;6.15;;;8.40;99.90;;;;;;4971345;28;20389;-87
2022/12/28 05:15:12;;;;;;;12.05;5.82;;;8.40;99.90;;;;;;4972079;28;20054;-89
2022/12/28 05:17:37;;;;;;;10.65;6.13;;;8.40;99.90;;;;;;4971960;28;20481;-89
2022/12/28 05:20:04;;;;;;;14.00;6.75;;;8.50;99.90;;;;;;4971941;28;20556;-89
2022/12/28 05:22:30;;;;;;;14.25;6.65;;;8.40;99.90;;;;;;4971794;28;20083;-88
2022/12/28 05:24:56;;;;;;;14.32;6.38;;;8.40;99.90;;;;;;4971473;28;20110;-86
2022/12/28 05:27:25;;;;;;;9.73;5.72;;;8.50;99.90;;;;;;4971059;28;20122;-87
2022/12/28 05:29:50;;;;;;;10.60;6.10;;;8.50;99.90;;;;;;4971028;28;20051;-88
2022/12/28 05:32:16;;;;;;;12.77;6.18;;;8.50;99.90;;;;;;4972162;28;20035;-88
2022/12/28 05:34:47;;;;;;;9.88;5.82;;;8.50;99.90;;;;;;4990901;28;20034;-89
2022/12/28 05:37:13;;;;;;;;;;;8.50;99.90;;;;;;4959283;28;20057;-89
2022/12/28 05:39:39;;;;;;;11.77;6.03;;;8.50;99.90;;;;;;4990993;28;20352;-88
2022/12/28 05:42:04;;;;;;;12.43;6.28;;;8.60;99.90;;;;;;4958647;28;20031;-88
2022/12/28 05:44:30;;;;;;;11.13;5.97;;;8.60;99.90;;;;;;4974786;28;20079;-89
2022/12/28 05:46:56;;;;;;;9.02;6.10;;;8.60;99.90;;;;;;4958577;28;20173;-87
2022/12/28 05:49:22;;;;;;;13.02;6.07;;;8.60;99.90;;;;;;4974374;28;20492;-87
2022/12/28 05:51:51;;;;;;;10.27;6.03;;;8.60;99.90;;;;;;4958113;28;20035;-88
2022/12/28 05:54:17;;;;;;;10.90;5.30;;;8.60;99.90;;;;;;4958249;28;20494;-87
2022/12/28 05:56:43;;;;;;;11.82;6.07;;;8.60;99.90;;;;;;4958208;28;20042;-88
2022/12/28 05:59:08;;;;;;;10.88;6.50;;;8.60;99.90;;;;;;4957941;28;20039;-87
2022/12/28 06:01:37;;;;;;;9.02;5.38;;;8.70;99.90;;;;;;4975309;28;20431;-87
2022/12/28 06:04:15;;;;;;;8.05;5.47;;;8.70;99.90;;;;;;4973955;28;20045;-87
2022/12/28 06:06:41;;;;;;;12.45;5.57;;;8.70;99.90;;;;;;4975147;28;20046;-87
2022/12/28 06:09:07;;;;;;;10.45;5.70;;;8.70;99.90;;;;;;4973876;28;20476;-87
2022/12/28 06:11:33;;;;;;;9.20;4.88;;;8.70;99.90;;;;;;4973394;28;20085;-86
2022/12/28 06:13:59;;;;;;;9.38;5.05;;;8.70;99.90;;;;;;4974067;28;20035;-85
2022/12/28 06:16:27;;;;;;;6.72;4.35;;;8.70;99.90;;;;;;4957429;28;20031;-85
2022/12/28 06:18:53;;;;;;;12.15;5.03;;;8.80;99.90;;;;;;4974745;28;20399;-85
2022/12/28 06:21:23;;;;;;;6.55;4.43;;;8.80;99.90;;;;;;4957958;28;20030;-90
2022/12/28 06:23:50;;;;;;;7.40;4.53;;;8.80;99.90;;;;;;4974687;28;20023;-89
2022/12/28 06:26:18;;;;;;;8.85;4.85;;;8.80;99.90;;;;;;4958482;28;20050;-89
2022/12/28 06:28:44;;;;;;;7.72;4.28;;;8.80;99.90;;;;;;4974568;28;20019;-90
2022/12/28 06:31:18;;;;;;;10.95;5.10;;;8.80;99.90;;;;;;4974267;28;20034;-90
2022/12/28 06:33:45;;;;;;;7.68;4.65;;;8.90;99.90;;;;;;4974212;28;20050;-89
2022/12/28 06:36:20;;;;;;;6.35;4.05;;;8.90;99.90;;;;;;4974542;28;20030;-89
2022/12/28 06:38:47;;;;;;;11.88;4.72;;;8.90;99.90;;;;;;4973332;28;20081;-85
2022/12/28 06:41:14;;;;;;;7.22;4.00;;;9.00;99.90;;;;;;4973397;28;20027;-87
2022/12/28 06:43:41;;;;;;;11.10;4.60;;;9.00;99.90;;;;;;4973248;28;20027;-87
2022/12/28 06:46:07;;;;;;;6.65;4.15;;;9.00;99.90;;;;;;4973562;28;20464;-87
2022/12/28 06:48:34;;;;;;;8.23;4.80;;;9.00;99.90;;;;;;4957314;28;20282;-87
2022/12/28 06:51:04;;;;;;;6.28;4.53;;;9.00;99.90;;;;;;4957604;28;20030;-87
2022/12/28 06:53:32;;;;;;;7.55;3.78;;;9.00;99.90;;;;;;4973748;28;20022;-87
2022/12/28 06:56:04;;;;;;;7.80;4.47;;;9.00;99.90;;;;;;4973015;28;20051;-87
2022/12/28 06:58:30;;;;;;;8.15;3.50;;;9.00;99.90;;;;;;4973840;28;20044;-87
2022/12/28 07:00:57;;;;;;;9.45;4.15;;;9.10;99.90;;;;;;4973385;28;20476;-86
2022/12/28 07:03:23;;;;;;;6.57;3.88;;;9.10;99.90;;;;;;4957127;28;20035;-87
2022/12/28 07:05:49;;;;;;;6.50;3.95;;;9.10;99.90;;;;;;4957271;28;20114;-86
2022/12/28 07:08:16;;;;;;;8.70;4.35;;;9.10;99.90;;;;;;4956921;28;20200;-85
2022/12/28 07:10:43;;;;;;;5.45;3.65;;;9.10;99.90;;;;;;4974325;28;20097;-88
2022/12/28 07:13:08;;;;;;;6.57;3.63;;;9.10;99.90;;;;;;4957861;28;20027;-88
2022/12/28 07:15:35;;;;;;;8.10;4.75;;;9.10;99.90;;;;;;4957518;28;20030;-87
2022/12/28 07:18:01;;;;;;;9.60;3.90;;;9.10;99.90;;;;;;4957221;28;20042;-87
2022/12/28 07:20:27;;;;;;;6.03;3.53;;;9.20;99.90;;;;;;4957229;28;20034;-88
2022/12/28 07:22:53;;;;;;;5.00;3.55;;;9.20;99.90;;;;;;4975037;28;20090;-85
2022/12/28 07:25:19;;;;;;;7.70;4.05;;;9.20;99.90;;;;;;4976361;28;20034;-89
2022/12/28 07:27:47;;;;;;;6.82;4.10;;;9.20;99.90;;;;;;4977977;28;20023;-89
2022/12/28 07:30:13;;;;;;;5.32;3.63;;;9.20;99.90;;;;;;4961548;28;20484;-89
2022/12/28 07:32:39;;;;;;;5.53;3.25;;;9.20;99.90;;;;;;4977289;28;20053;-89
2022/12/28 07:35:06;;;;;;;6.38;3.80;;;9.20;99.90;;;;;;4960605;28;20027;-89
2022/12/28 07:37:31;;;;;;;8.15;3.80;;;9.20;99.90;;;;;;4976973;28;20530;-90
2022/12/28 07:39:57;;;;;;;7.70;3.70;;;9.20;99.90;;;;;;4960812;28;20023;-89
2022/12/28 07:42:23;;;;;;;6.72;3.22;;;9.20;99.90;;;;;;4960656;28;20035;-89
2022/12/28 07:44:49;;;;;;;5.10;3.50;;;9.20;99.90;;;;;;4960710;28;20030;-89
2022/12/28 07:47:15;;;;;;;6.72;3.50;;;9.30;99.90;;;;;;4960251;28;20122;-86
2022/12/28 07:49:40;;;;;;;6.55;3.55;;;9.30;99.90;;;;;;4960909;28;20046;-87
2022/12/28 07:52:06;;;;;;;6.70;3.45;;;9.30;99.90;;;;;;4960505;28;20030;-87
2022/12/28 07:54:32;;;;;;;5.88;3.40;;;9.30;99.90;;;;;;4975774;28;20047;-87
2022/12/28 07:56:58;;;;;;;6.70;3.60;;;9.40;99.90;;;;;;4975791;28;20035;-86
2022/12/28 07:59:24;;;;;;;5.43;3.38;;;9.40;99.90;;;;;;4977222;28;20038;-87
2022/12/28 08:01:50;;;;;;;7.88;4.00;;;9.40;99.90;;;;;;4976075;28;20034;-88
2022/12/28 08:04:16;;;;;;;7.93;4.25;;;9.40;99.90;;;;;;4976017;28;20027;-88
2022/12/28 08:06:44;;;;;;;7.50;3.95;;;9.40;99.90;;;;;;4976079;28;20058;-88
2022/12/28 08:09:12;;;;;;;5.15;3.65;;;9.40;99.90;;;;;;4976132;28;20025;-88
2022/12/28 08:11:42;;;;;;;8.80;4.10;;;9.40;99.90;;;;;;4975770;28;20089;-86
2022/12/28 08:14:09;;;;;;;6.32;4.35;;;9.50;99.90;;;;;;4991799;28;20019;-87
2022/12/28 08:16:40;;;;;;;9.30;4.43;;;9.40;99.90;;;;;;4975516;28;20026;-88
2022/12/28 08:19:07;;;;;;;7.20;4.25;;;9.50;99.90;;;;;;4976026;28;20027;-88
2022/12/28 08:21:38;;;;;;;6.47;4.25;;;9.50;99.90;;;;;;4975843;28;20026;-88
2022/12/28 08:24:06;;;;;;;8.20;4.15;;;9.50;99.90;;;;;;4975863;28;20122;-88
2022/12/28 08:26:41;;;;;;;8.65;4.78;;;9.50;99.90;;;;;;4960001;28;20038;-88
2022/12/28 08:29:13;;;;;;;10.68;4.00;;;9.50;99.90;;;;;;4976669;28;20019;-89
2022/12/28 08:31:41;;;;;;;9.00;4.10;;;9.50;99.90;;;;;;4976205;28;20023;-88
2022/12/28 08:34:13;;;;;;;7.18;4.15;;;9.50;99.90;;;;;;4975754;28;20053;-85
2022/12/28 08:36:39;;;;;;;7.38;3.97;;;9.50;99.90;;;;;;4975290;28;20033;-85
2022/12/28 08:39:06;;;;;;;6.88;3.63;;;9.50;99.90;;;;;;4959073;28;20026;-85
2022/12/28 08:41:31;;;;;;;6.45;3.47;;;9.50;99.90;;;;;;4972752;28;20031;-85
2022/12/28 08:43:58;;;;;;;7.72;4.38;;;9.60;99.90;;;;;;4958369;28;20046;-86
2022/12/28 08:46:32;;;;;;;10.55;4.20;;;9.60;99.90;;;;;;4974993;28;20023;-86
2022/12/28 09:11:41;;;;;;;6.18;3.35;;;9.60;99.90;;;;;;5000095;28;20050;-86
2022/12/28 09:14:10;;;;;;;7.38;3.40;;;9.60;99.90;;;;;;4990148;28;20088;-84
2022/12/28 09:16:39;;;;;;;6.93;3.20;;;9.60;99.90;;;;;;4973423;28;20496;-90
2022/12/28 09:19:07;;;;;;;5.75;3.67;;;9.60;99.90;;;;;;4997389;28;20022;-84
2022/12/28 09:21:37;;;;;;;7.03;4.10;;;9.60;99.90;;;;;;4996991;28;20026;-84
2022/12/28 09:24:03;;;;;;;7.10;3.88;;;9.60;99.90;;;;;;4996676;28;20041;-83
2022/12/28 09:26:31;;;;;;;7.10;3.75;;;9.70;99.90;;;;;;4974092;28;20064;-88
2022/12/28 09:28:59;;;;;;;7.25;4.22;;;9.60;99.90;;;;;;5015818;28;20030;-87
2022/12/28 09:31:30;;;;;;;7.78;4.88;;;9.70;99.90;;;;;;4968099;28;20019;-85
2022/12/28 09:34:02;;;;;;;9.68;4.30;;;9.60;99.90;;;;;;4992704;28;20026;-83
2022/12/28 09:36:36;;;;;;;11.77;4.85;;;9.70;99.90;;;;;;4979166;28;20022;-86
2022/12/28 09:39:08;;;;;;;7.97;4.55;;;9.70;99.90;;;;;;4978862;28;20030;-85
2022/12/28 09:41:40;;;;;;;10.65;4.50;;;9.70;99.90;;;;;;4978653;28;20018;-86
2022/12/28 09:44:12;;;;;;;10.75;4.72;;;9.70;99.90;;;;;;4978184;28;20030;-84
2022/12/28 09:46:50;;;;;;;10.25;5.10;;;9.60;99.90;;;;;;4995035;28;20443;-84
2022/12/28 09:49:19;;;;;;;9.10;4.22;;;9.60;99.90;;;;;;4977935;28;20100;-83
2022/12/28 09:52:13;;;;;;;13.38;5.05;;;9.70;99.90;;;;;;4977824;28;20359;-84
2022/12/28 09:54:39;;;;;;;10.88;4.25;;;9.70;99.90;;;;;;4978009;28;20093;-84
2022/12/28 09:57:14;;;;;;;8.32;4.60;;;9.70;99.90;;;;;;4961556;28;20038;-84
2022/12/28 09:59:40;;;;;;;7.90;3.78;;;9.70;99.90;;;;;;4993993;28;20030;-83
2022/12/28 10:02:25;;;;;;;9.60;4.20;;;9.70;99.90;;;;;;4977475;28;20043;-83
2022/12/28 10:04:51;;;;;;;10.70;4.25;;;9.70;99.90;;;;;;4977411;28;20022;-84
2022/12/28 10:07:17;;;;;;;6.95;4.22;;;9.70;99.90;;;;;;4977474;28;20037;-84
2022/12/28 10:09:44;;;;;;;7.95;4.38;;;9.70;99.90;;;;;;4977283;28;20058;-83
2022/12/28 10:12:36;;;;;;;6.45;4.13;;;9.70;99.90;;;;;;4977368;28;20378;-83
2022/12/28 10:15:05;;;;;;;9.45;3.85;;;9.70;99.90;;;;;;4990402;28;20042;-83
2022/12/28 10:17:30;;;;;;;10.65;4.47;;;9.70;99.90;;;;;;4977673;28;20526;-83
2022/12/28 10:19:58;;;;;;;7.70;4.40;;;9.60;99.90;;;;;;4993812;28;20134;-84
2022/12/28 10:22:25;;;;;;;11.77;4.38;;;9.70;99.90;;;;;;4961911;28;20387;-84
2022/12/28 10:24:53;;;;;;;7.07;3.95;;;9.70;99.90;;;;;;4977531;28;20030;-85
2022/12/28 10:27:22;;;;;;;10.40;4.38;;;9.70;99.90;;;;;;4961735;28;20037;-85
2022/12/28 10:29:52;;;;;;;6.70;4.13;;;9.70;99.90;;;;;;4977082;28;20518;-83
2022/12/28 10:32:18;;;;;;;6.88;3.83;;;9.70;99.90;;;;;;4994064;28;20100;-84
2022/12/28 10:34:58;;;;;;;11.50;5.25;;;9.80;99.90;;;;;;4960556;28;20026;-83
2022/12/28 10:37:27;;;;;;;11.27;4.17;;;9.80;99.90;;;;;;4976804;28;20029;-83
2022/12/28 10:39:58;;;;;;;7.60;3.58;;;9.70;99.90;;;;;;4976584;28;20033;-84
2022/12/28 10:42:40;;;;;;;5.80;3.53;;;9.70;99.90;;;;;;4977294;28;20398;-83
2022/12/28 10:45:17;;;;;;;6.47;3.80;;;9.80;99.90;;;;;;4977089;28;20045;-82
2022/12/28 10:47:47;;;;;;;11.68;4.75;;;9.80;99.90;;;;;;4977286;28;20038;-83
2022/12/28 10:50:48;;;;;;;6.40;3.22;;;9.80;99.90;;;;;;4977084;28;20033;-83
2022/12/28 10:53:40;;;;;;;7.43;3.17;;;9.80;99.90;;;;;;4994428;28;20027;-83
2022/12/28 10:56:12;;;;;;;5.07;2.95;;;9.80;99.90;;;;;;4977901;28;20081;-83
2022/12/28 10:58:45;;;;;;;4.75;2.65;;;9.80;99.90;;;;;;4997211;28;20076;-83
2022/12/28 11:01:11;;;;;;;4.30;2.78;;;9.80;99.90;;;;;;4980669;28;20462;-82
2022/12/28 11:03:57;;;;;;;5.38;2.58;;;9.80;99.90;;;;;;4980685;28;20041;-83
2022/12/28 11:06:54;;;;;;;4.95;3.05;;;9.80;99.90;;;;;;4998339;28;20096;-83
2022/12/28 11:09:28;;;;;;;4.28;2.22;;;9.80;99.90;;;;;;4972140;28;20458;-83
2022/12/28 11:12:14;;;;;;;4.75;2.58;;;9.80;99.90;;;;;;4997796;28;20031;-82
2022/12/28 11:14:40;;;;;;;4.75;2.20;;;9.80;99.90;;;;;;4995153;28;20061;-84
2022/12/28 11:17:19;;;;;;;2.72;2.00;;;9.80;99.90;;;;;;4998030;28;20121;-84
2022/12/28 11:19:46;;;;;;;4.95;2.22;;;9.90;99.90;;;;;;4977778;28;20023;-84
2022/12/28 11:22:19;;;;;;;3.53;2.10;;;9.80;99.90;;;;;;4979840;28;20030;-84
2022/12/28 11:24:45;;;;;;;4.95;2.00;;;9.90;99.90;;;;;;4994824;28;20117;-84
2022/12/28 11:27:15;;;;;;;2.67;1.88;;;9.90;99.90;;;;;;4981133;28;20058;-84
2022/12/28 11:29:46;;;;;;;2.33;1.63;;;9.90;99.90;;;;;;5017420;28;20077;-84
2022/12/28 11:32:22;;;;;;;;;;;9.90;99.90;;;;;;5029827;28;20037;-84
2022/12/28 11:34:48;;;;;;;3.47;1.95;;;9.90;99.90;;;;;;4997052;28;19906;-84
2022/12/28 11:37:14;;;;;;;3.05;1.80;;;9.90;99.90;;;;;;4998069;28;20030;-84
2022/12/28 11:39:50;;;;;;;3.30;1.70;;;9.80;99.90;;;;;;4995668;28;20129;-85
2022/12/28 11:42:31;;;;;;;2.90;1.90;;;9.90;99.90;;;;;;4989839;28;20030;-84
2022/12/28 11:44:58;;;;;;;2.50;1.83;;;9.90;99.90;;;;;;4998476;28;20023;-85
2022/12/28 11:47:32;;;;;;;3.08;1.98;;;9.90;99.90;;;;;;4984106;28;20470;-85
2022/12/28 11:50:32;;;;;;;3.95;2.20;;;9.90;99.90;;;;;;5000019;28;20606;-85
2022/12/28 11:53:00;;;;;;;2.88;1.73;;;9.90;99.90;;;;;;4983838;28;20546;-85
2022/12/28 11:55:37;;;;;;;3.58;2.10;;;9.90;99.90;;;;;;4999195;28;20477;-84
2022/12/28 11:58:40;;;;;;;3.78;1.75;;;9.90;99.90;;;;;;5000216;28;20087;-85
2022/12/28 12:01:09;;;;;;;4.07;2.08;;;9.90;99.90;;;;;;5013525;28;20026;-86
2022/12/28 12:03:57;;;;;;;6.78;2.15;;;9.90;99.90;;;;;;5019043;28;20064;-83
2022/12/28 12:06:41;;;;;;;2.80;2.00;;;9.90;99.90;;;;;;5020613;28;20026;-84
2022/12/28 12:09:27;;;;;;;5.60;2.00;;;10.00;99.90;;;;;;5017974;28;20026;-85
2022/12/28 12:12:15;;;;;;;4.65;2.10;;;9.90;99.90;;;;;;5018338;28;20164;-84
2022/12/28 12:14:43;;;;;;;5.00;2.10;;;10.00;99.90;;;;;;5011674;28;20038;-84
2022/12/28 12:17:29;;;;;;;7.30;1.98;;;10.00;99.90;;;;;;5028800;28;20026;-83
2022/12/28 12:19:59;;;;;;;4.05;2.00;;;10.00;99.90;;;;;;4998197;28;20027;-83
2022/12/28 12:22:33;;;;;;;5.25;2.08;;;10.00;99.90;;;;;;4999272;28;20065;-84
2022/12/28 12:25:20;;;;;;;6.47;2.17;;;10.00;99.90;;;;;;4999380;28;20470;-83
2022/12/28 12:27:59;;;;;;;4.32;2.08;;;10.00;99.90;;;;;;4999251;28;20554;-84
2022/12/28 12:30:26;;;;;;;4.55;2.15;;;10.00;99.90;;;;;;4998716;28;20034;-84
2022/12/28 12:32:59;;;;;;;6.97;2.10;;;10.00;99.90;;;;;;4999178;28;20029;-84
2022/12/28 12:35:27;;;;;;;10.68;2.80;;;10.00;99.90;;;;;;5016470;28;20536;-83
2022/12/28 12:37:59;;;;;;;3.58;1.83;;;9.90;99.90;;;;;;4998633;28;20036;-84
2022/12/28 12:40:30;;;;;;;6.00;2.10;;;10.00;99.90;;;;;;4998320;28;20026;-84
2022/12/28 12:43:20;;;;;;;5.97;2.03;;;10.00;99.90;;;;;;4998460;28;20459;-84
2022/12/28 12:46:08;;;;;;;4.97;2.10;;;9.90;99.90;;;;;;4999096;28;20026;-84
2022/12/28 12:48:48;;;;;;;6.70;2.60;;;9.90;99.90;;;;;;4998830;28;20032;-83
2022/12/28 12:51:17;;;;;;;5.03;2.20;;;9.90;99.90;;;;;;4998218;28;20041;-84
2022/12/28 12:54:16;;;;;;;5.75;2.28;;;9.90;99.90;;;;;;4998057;28;20033;-83
2022/12/28 12:56:57;;;;;;;8.48;2.58;;;9.90;99.90;;;;;;4998588;28;20026;-84
2022/12/28 12:59:28;;;;;;;4.22;2.35;;;9.90;99.90;;;;;;5014348;28;20083;-83
2022/12/28 13:02:00;;;;;;;7.80;3.08;;;9.90;99.90;;;;;;4997649;28;20046;-84
2022/12/28 13:04:30;;;;;;;7.57;2.58;;;9.90;99.90;;;;;;4997550;28;20374;-83
2022/12/28 13:06:59;;;;;;;7.47;2.80;;;9.90;99.90;;;;;;4989965;28;20019;-85
2022/12/28 13:09:28;;;;;;;7.10;2.90;;;10.00;99.90;;;;;;4996482;28;20056;-84
2022/12/28 13:11:55;;;;;;;5.97;2.72;;;10.00;99.90;;;;;;4997469;28;20074;-84
2022/12/28 13:14:23;;;;;;;8.75;2.58;;;9.90;99.90;;;;;;5013342;28;20026;-84
2022/12/28 13:16:54;;;;;;;11.55;4.18;;;9.90;99.90;;;;;;5015017;28;20029;-84
2022/12/28 13:19:28;;;;;;;8.98;2.50;;;9.90;99.90;;;;;;4996143;28;20029;-86
2022/12/28 13:21:56;;;;;;;7.15;2.35;;;9.90;99.90;;;;;;4996608;28;20022;-84
2022/12/28 13:24:26;;;;;;;7.20;2.35;;;9.90;99.90;;;;;;5002607;28;20033;-84
2022/12/28 13:26:53;;;;;;;6.70;2.42;;;10.00;99.90;;;;;;5016638;28;20024;-85
2022/12/28 13:29:30;;;;;;;7.10;2.33;;;10.00;99.90;;;;;;4998012;28;20026;-85
2022/12/28 13:31:55;;;;;;;8.57;2.53;;;10.00;99.90;;;;;;4998088;28;20030;-85
2022/12/28 13:34:30;;;;;;;7.15;2.80;;;10.00;99.90;;;;;;4999136;28;20018;-84
2022/12/28 13:36:58;;;;;;;7.72;2.90;;;10.00;99.90;;;;;;5009293;28;20026;-86
2022/12/28 13:39:29;;;;;;;9.80;2.80;;;10.00;99.90;;;;;;5021242;28;20098;-84
2022/12/28 13:41:58;;;;;;;9.20;2.50;;;10.00;99.90;;;;;;5013517;28;20037;-84
2022/12/28 13:44:41;;;;;;;11.32;2.40;;;10.00;99.90;;;;;;4998598;28;20042;-84
2022/12/28 13:47:19;;;;;;;11.05;2.22;;;10.00;99.90;;;;;;4997663;28;20091;-84
2022/12/28 13:49:54;;;;;;;8.25;2.85;;;10.00;99.90;;;;;;5015522;28;20057;-85
2022/12/28 13:52:31;;;;;;;7.90;3.28;;;10.00;99.90;;;;;;4997440;28;20022;-85
2022/12/28 13:55:02;;;;;;;10.23;3.10;;;10.00;99.90;;;;;;4980451;28;20026;-85
2022/12/28 13:57:30;;;;;;;8.75;3.03;;;10.00;99.90;;;;;;5013778;28;20044;-85
2022/12/28 13:59:58;;;;;;;8.55;2.70;;;10.00;99.90;;;;;;5015327;28;20056;-84